createdAt,value
2022-11-26T00:01:28.029Z,9.30
2022-11-26T00:04:14.566Z,8.50
2022-11-26T00:07:02.412Z,8.83
2022-11-26T00:09:48.751Z,9.47
2022-11-26T00:12:36.068Z,9.03
2022-11-26T00:15:24.811Z,9.67
2022-11-26T00:18:12.970Z,9.47
2022-11-26T00:21:02.108Z,10.10
2022-11-26T00:23:50.091Z,9.80
2022-11-26T00:26:36.663Z,15.77
2022-11-26T00:29:23.233Z,9.87
2022-11-26T00:32:17.404Z,9.93
2022-11-26T00:35:03.952Z,9.57
2022-11-26T00:37:54.653Z,9.57
2022-11-26T00:40:42.578Z,11.43
2022-11-26T00:43:28.999Z,10.27
2022-11-26T00:46:16.596Z,10.67
2022-11-26T00:49:03.284Z,11.30
2022-11-26T00:51:49.687Z,10.33
2022-11-26T00:54:36.142Z,10.03
2022-11-26T00:57:23.953Z,10.37
2022-11-26T01:00:18.886Z,10.30
2022-11-26T01:03:05.397Z,11.43
2022-11-26T01:05:53.529Z,10.60
2022-11-26T01:08:39.995Z,10.03
2022-11-26T01:11:27.426Z,10.57
2022-11-26T01:14:17.677Z,9.37
2022-11-26T01:17:04.007Z,10.33
2022-11-26T01:19:50.438Z,10.60
2022-11-26T01:22:36.652Z,9.17
2022-11-26T01:25:24.995Z,10.50
2022-11-26T01:28:13.132Z,35.93
2022-11-26T01:31:00.756Z,12.03
2022-11-26T01:33:47.623Z,9.73
2022-11-26T01:36:36.290Z,8.80
2022-11-26T01:39:24.768Z,10.83
2022-11-26T01:42:22.980Z,9.77
2022-11-26T01:45:17.327Z,10.43
2022-11-26T01:48:21.691Z,9.97
2022-11-26T01:51:09.567Z,9.63
2022-11-26T01:53:59.951Z,10.37
2022-11-26T01:56:49.176Z,10.57
2022-11-26T01:59:40.894Z,9.97
2022-11-26T02:02:29.557Z,10.70
2022-11-26T02:05:23.599Z,9.50
2022-11-26T02:08:10.752Z,10.30
2022-11-26T02:10:57.081Z,10.13
2022-11-26T02:13:43.483Z,10.70
2022-11-26T02:16:43.888Z,10.77
2022-11-26T02:20:13.956Z,10.50
2022-11-26T02:23:29.095Z,10.77
2022-11-26T02:26:56.104Z,10.73
2022-11-26T02:30:08.218Z,9.83
2022-11-26T02:33:00.110Z,9.97
2022-11-26T02:35:48.633Z,10.47
2022-11-26T02:38:39.020Z,10.43
2022-11-26T02:41:33.781Z,10.77
2022-11-26T02:44:24.163Z,11.83
2022-11-26T02:47:15.965Z,10.83
2022-11-26T02:50:09.176Z,11.27
2022-11-26T02:52:58.171Z,10.73
2022-11-26T02:55:49.588Z,11.10
2022-11-26T02:58:36.968Z,11.17
2022-11-26T03:01:29.386Z,11.20
2022-11-26T03:04:21.039Z,11.70
2022-11-26T03:07:09.784Z,11.17
2022-11-26T03:09:58.276Z,11.20
2022-11-26T03:12:44.627Z,11.83
2022-11-26T03:15:31.159Z,10.67
2022-11-26T03:18:17.579Z,11.37
2022-11-26T03:21:05.626Z,11.50
2022-11-26T03:23:52.023Z,11.70
2022-11-26T03:26:38.446Z,11.40
2022-11-26T03:29:25.222Z,11.80
2022-11-26T03:32:11.836Z,11.50
2022-11-26T03:34:58.405Z,12.77
2022-11-26T03:37:46.105Z,11.73
2022-11-26T03:40:32.368Z,11.40
2022-11-26T03:43:18.650Z,11.47
2022-11-26T03:46:05.048Z,11.53
2022-11-26T03:48:51.620Z,11.87
2022-11-26T03:51:37.931Z,11.70
2022-11-26T03:54:25.758Z,12.23
2022-11-26T03:57:12.929Z,12.20
2022-11-26T03:59:59.343Z,11.57
2022-11-26T04:02:45.687Z,11.60
2022-11-26T04:05:31.941Z,12.63
2022-11-26T04:08:18.190Z,11.30
2022-11-26T04:11:06.041Z,11.33
2022-11-26T04:13:52.623Z,12.57
2022-11-26T04:16:38.982Z,12.57
2022-11-26T04:19:25.844Z,12.23
2022-11-26T04:22:12.200Z,11.03
2022-11-26T04:24:58.533Z,12.20
2022-11-26T04:27:46.187Z,11.50
2022-11-26T04:30:32.480Z,11.80
2022-11-26T04:33:18.790Z,12.10
2022-11-26T04:36:06.072Z,11.93
2022-11-26T04:38:52.507Z,12.00
2022-11-26T04:41:38.949Z,12.03
2022-11-26T04:44:26.801Z,11.57
2022-11-26T04:47:13.158Z,11.57
2022-11-26T04:49:59.703Z,12.03
2022-11-26T04:52:48.313Z,12.30
2022-11-26T04:55:35.089Z,11.73
2022-11-26T04:58:22.002Z,11.23
2022-11-26T05:01:09.794Z,10.83
2022-11-26T05:03:56.039Z,12.23
2022-11-26T05:06:42.681Z,12.10
2022-11-26T05:09:28.906Z,13.03
2022-11-26T05:12:15.252Z,12.40
2022-11-26T05:15:01.520Z,12.30
2022-11-26T05:17:49.331Z,12.87
2022-11-26T05:20:35.668Z,12.03
2022-11-26T05:23:22.318Z,12.27
2022-11-26T05:26:08.797Z,11.43
2022-11-26T05:28:55.205Z,12.63
2022-11-26T05:31:41.586Z,13.00
2022-11-26T05:34:29.331Z,13.73
2022-11-26T05:37:15.816Z,13.43
2022-11-26T05:40:02.127Z,12.63
2022-11-26T05:42:48.360Z,13.67
2022-11-26T05:45:34.903Z,12.40
2022-11-26T05:48:21.107Z,13.30
2022-11-26T05:51:09.185Z,13.77
2022-11-26T05:53:55.652Z,14.03
2022-11-26T05:56:42.376Z,13.73
2022-11-26T05:59:28.787Z,13.60
2022-11-26T06:02:15.466Z,13.97
2022-11-26T06:05:02.152Z,14.30
2022-11-26T06:07:49.942Z,13.73
2022-11-26T06:10:36.711Z,13.43
2022-11-26T06:13:23.442Z,13.17
2022-11-26T06:16:10.166Z,13.43
2022-11-26T06:18:57.631Z,13.43
2022-11-26T06:21:44.170Z,13.67
2022-11-26T06:24:32.243Z,14.23
2022-11-26T06:27:18.585Z,13.40
2022-11-26T06:30:06.317Z,13.47
2022-11-26T06:32:52.770Z,13.20
2022-11-26T06:35:39.400Z,14.00
2022-11-26T06:38:25.671Z,13.53
2022-11-26T06:41:13.279Z,14.87
2022-11-26T06:43:59.914Z,13.07
2022-11-26T06:46:46.620Z,12.87
2022-11-26T06:49:32.884Z,13.40
2022-11-26T06:52:19.131Z,14.03
2022-11-26T06:55:06.134Z,12.80
2022-11-26T06:57:53.684Z,13.27
2022-11-26T07:00:39.893Z,14.13
2022-11-26T07:03:31.874Z,13.03
2022-11-26T07:06:21.794Z,13.97
2022-11-26T07:09:10.605Z,15.07
2022-11-26T07:11:57.180Z,13.13
2022-11-26T07:14:45.291Z,14.67
2022-11-26T07:17:31.615Z,13.90
2022-11-26T07:20:18.225Z,15.33
2022-11-26T07:23:04.616Z,15.33
2022-11-26T07:25:50.841Z,13.67
2022-11-26T07:28:37.430Z,13.57
2022-11-26T07:31:25.722Z,13.10
2022-11-26T07:34:12.105Z,12.33
2022-11-26T07:36:58.528Z,13.10
2022-11-26T07:39:44.740Z,12.67
2022-11-26T07:42:32.464Z,13.67
2022-11-26T07:45:19.152Z,13.70
2022-11-26T07:48:07.188Z,13.20
2022-11-26T07:50:53.631Z,14.87
2022-11-26T07:53:40.020Z,13.60
2022-11-26T07:56:27.050Z,12.20
2022-11-26T07:59:13.595Z,12.87
2022-11-26T08:02:00.088Z,12.63
2022-11-26T08:04:48.017Z,11.83
2022-11-26T08:07:35.962Z,13.50
2022-11-26T08:10:22.268Z,13.07
2022-11-26T08:13:08.474Z,13.00
2022-11-26T08:15:54.717Z,12.83
2022-11-26T08:18:41.183Z,12.53
2022-11-26T08:21:28.832Z,12.57
2022-11-26T08:24:17.336Z,12.90
2022-11-26T08:27:03.612Z,12.43
2022-11-26T08:29:50.206Z,10.93
2022-11-26T08:32:36.750Z,12.93
2022-11-26T08:35:34.289Z,12.20
2022-11-26T08:38:31.581Z,11.07
2022-11-26T08:41:18.316Z,9.43
2022-11-26T08:44:06.712Z,10.07
2022-11-26T08:46:54.072Z,10.73
2022-11-26T08:49:40.333Z,10.77
2022-11-26T08:52:26.616Z,11.00
2022-11-26T08:55:14.209Z,9.10
2022-11-26T08:58:00.304Z,9.50
2022-11-26T09:00:46.476Z,9.80
2022-11-26T09:03:32.806Z,9.27
2022-11-26T09:06:20.655Z,9.70
2022-11-26T09:09:14.100Z,9.17
2022-11-26T09:12:03.103Z,9.23
2022-11-26T09:14:49.692Z,9.90
2022-11-26T09:17:36.079Z,9.17
2022-11-26T09:20:22.362Z,8.67
2022-11-26T09:23:08.879Z,8.70
2022-11-26T09:25:55.072Z,8.77
2022-11-26T09:28:43.177Z,10.60
2022-11-26T09:31:29.751Z,8.23
2022-11-26T09:34:16.191Z,8.23
2022-11-26T09:37:02.604Z,10.33
2022-11-26T09:39:49.727Z,10.30
2022-11-26T09:42:49.230Z,9.00
2022-11-26T09:45:46.766Z,9.80
2022-11-26T09:48:34.698Z,9.30
2022-11-26T09:51:22.299Z,9.60
2022-11-26T09:54:16.205Z,7.93
2022-11-26T09:57:16.994Z,10.13
2022-11-26T10:00:06.422Z,9.13
2022-11-26T10:02:55.705Z,9.80
2022-11-26T10:05:46.514Z,10.23
2022-11-26T10:09:08.187Z,8.70
2022-11-26T10:12:03.969Z,8.87
2022-11-26T10:14:56.584Z,10.10
2022-11-26T10:17:52.024Z,10.50
2022-11-26T10:21:04.891Z,9.07
2022-11-26T10:23:58.344Z,7.63
2022-11-26T10:26:45.739Z,8.20
2022-11-26T10:29:38.145Z,8.53
2022-11-26T10:32:27.526Z,9.80
2022-11-26T10:35:16.744Z,7.00
2022-11-26T10:38:04.696Z,7.57
2022-11-26T10:40:50.976Z,7.63
2022-11-26T10:43:37.113Z,8.10
2022-11-26T10:46:41.770Z,7.50
2022-11-26T10:49:30.319Z,7.37
2022-11-26T10:52:18.442Z,6.43
2022-11-26T10:55:17.801Z,7.30
2022-11-26T10:58:08.447Z,7.67
2022-11-26T11:00:58.855Z,6.83
2022-11-26T11:04:08.095Z,7.47
2022-11-26T11:06:55.034Z,6.70
2022-11-26T11:09:41.299Z,9.37
2022-11-26T11:12:28.811Z,8.00
2022-11-26T11:15:23.022Z,7.93
2022-11-26T11:18:20.129Z,7.43
2022-11-26T11:21:07.389Z,7.27
2022-11-26T11:24:09.072Z,7.07
2022-11-26T11:26:58.628Z,8.13
2022-11-26T11:29:47.959Z,6.63
2022-11-26T11:32:37.220Z,6.70
2022-11-26T11:35:26.276Z,7.63
2022-11-26T11:38:24.485Z,7.27
2022-11-26T11:41:15.616Z,6.83
2022-11-26T11:44:06.954Z,6.93
2022-11-26T11:47:14.940Z,8.20
2022-11-26T11:50:14.655Z,7.67
2022-11-26T11:53:11.180Z,7.43
2022-11-26T11:56:16.207Z,6.53
2022-11-26T11:59:23.407Z,7.60
2022-11-26T12:02:44.598Z,7.50
2022-11-26T12:05:47.462Z,12.50
2022-11-26T12:08:43.403Z,8.30
2022-11-26T12:11:37.240Z,7.60
2022-11-26T12:14:29.097Z,8.67
2022-11-26T12:17:21.232Z,7.53
2022-11-26T12:20:19.875Z,8.27
2022-11-26T12:23:24.350Z,6.90
2022-11-26T12:26:16.136Z,8.57
2022-11-26T12:29:07.795Z,8.13
2022-11-26T12:31:57.805Z,8.67
2022-11-26T12:34:48.539Z,9.37
2022-11-26T12:37:40.940Z,13.83
2022-11-26T12:40:35.163Z,7.07
2022-11-26T12:43:27.585Z,6.20
2022-11-26T12:46:19.951Z,8.03
2022-11-26T12:49:14.923Z,5.70
2022-11-26T12:52:17.219Z,5.93
2022-11-26T12:55:17.626Z,6.40
2022-11-26T12:58:11.707Z,6.33
2022-11-26T13:00:59.733Z,7.27
2022-11-26T13:03:46.414Z,8.07
2022-11-26T13:06:47.705Z,7.23
2022-11-26T13:09:52.653Z,6.83
2022-11-26T13:12:47.991Z,7.27
2022-11-26T13:15:38.968Z,6.27
2022-11-26T13:18:32.938Z,6.37
2022-11-26T13:21:41.876Z,6.53
2022-11-26T13:24:39.560Z,6.93
2022-11-26T13:27:49.485Z,6.23
2022-11-26T13:30:44.949Z,6.73
2022-11-26T13:34:05.230Z,6.60
2022-11-26T13:37:09.751Z,6.60
2022-11-26T13:40:23.459Z,7.40
2022-11-26T13:43:57.602Z,7.23
2022-11-26T13:46:48.611Z,8.80
2022-11-26T13:49:40.281Z,10.13
2022-11-26T13:52:31.611Z,8.57
2022-11-26T13:55:22.383Z,8.23
2022-11-26T13:58:17.519Z,8.00
2022-11-26T14:01:35.357Z,9.93
2022-11-26T14:04:52.990Z,8.47
2022-11-26T14:07:39.612Z,8.90
2022-11-26T14:10:44.684Z,11.13
2022-11-26T14:13:31.277Z,6.50
2022-11-26T14:16:17.620Z,6.57
2022-11-26T14:19:05.213Z,7.80
2022-11-26T14:22:03.685Z,7.57
2022-11-26T14:24:59.618Z,7.63
2022-11-26T14:27:54.095Z,7.47
2022-11-26T14:30:40.903Z,7.30
2022-11-26T14:33:29.954Z,6.70
2022-11-26T14:36:23.162Z,7.73
2022-11-26T14:39:14.440Z,6.87
2022-11-26T14:42:05.980Z,6.70
2022-11-26T14:45:03.357Z,6.77
2022-11-26T14:47:52.342Z,6.40
2022-11-26T14:50:46.763Z,7.07
2022-11-26T14:53:36.055Z,6.13
2022-11-26T14:56:25.189Z,7.43
2022-11-26T14:59:17.716Z,7.13
2022-11-26T15:02:04.608Z,8.50
2022-11-26T15:04:59.139Z,7.57
2022-11-26T15:07:46.686Z,6.90
2022-11-26T15:10:38.323Z,9.03
2022-11-26T15:13:27.267Z,9.37
2022-11-26T15:16:28.881Z,8.20
2022-11-26T15:19:16.320Z,8.27
2022-11-26T15:22:06.882Z,8.93
2022-11-26T15:24:54.368Z,24.37
2022-11-26T15:27:49.350Z,12.37
2022-11-26T15:30:37.390Z,8.70
2022-11-26T15:33:24.026Z,8.93
2022-11-26T15:36:17.119Z,8.60
2022-11-26T15:39:06.546Z,9.37
2022-11-26T15:41:54.563Z,8.33
2022-11-26T15:44:42.959Z,8.17
2022-11-26T15:47:30.808Z,8.30
2022-11-26T15:50:27.478Z,9.77
2022-11-26T15:53:18.163Z,16.20
2022-11-26T15:56:05.500Z,8.57
2022-11-26T15:58:56.715Z,7.43
2022-11-26T16:01:47.521Z,8.30
2022-11-26T16:04:43.510Z,7.40
2022-11-26T16:07:31.746Z,7.43
2022-11-26T16:10:26.506Z,7.83
2022-11-26T16:13:22.914Z,6.83
2022-11-26T16:16:16.872Z,6.43
2022-11-26T16:19:05.512Z,6.77
2022-11-26T16:21:54.027Z,7.07
2022-11-26T16:24:43.683Z,7.30
2022-11-26T16:27:31.585Z,6.83
2022-11-26T16:30:19.349Z,5.33
2022-11-26T16:33:06.395Z,7.40
2022-11-26T16:35:54.435Z,7.47
2022-11-26T16:38:41.184Z,6.70
2022-11-26T16:41:28.192Z,8.07
2022-11-26T16:44:14.633Z,7.03
2022-11-26T16:47:02.419Z,6.40
2022-11-26T16:49:48.784Z,6.87
2022-11-26T16:52:38.469Z,7.93
2022-11-26T16:55:27.363Z,9.17
2022-11-26T16:58:27.895Z,9.70
2022-11-26T17:01:14.067Z,9.00
2022-11-26T17:04:00.179Z,9.10
2022-11-26T17:06:47.335Z,8.20
2022-11-26T17:09:35.607Z,8.93
2022-11-26T17:12:24.068Z,7.80
2022-11-26T17:15:11.539Z,9.70
2022-11-26T17:18:08.282Z,8.57
2022-11-26T17:20:55.120Z,9.17
2022-11-26T17:23:41.852Z,12.00
2022-11-26T17:26:29.549Z,31.77
2022-11-26T17:29:15.883Z,14.53
2022-11-26T17:32:02.313Z,9.43
2022-11-26T17:34:48.915Z,7.10
2022-11-26T17:37:35.903Z,6.80
2022-11-26T17:40:24.756Z,8.00
2022-11-26T17:43:12.896Z,7.93
2022-11-26T17:46:01.456Z,7.40
2022-11-26T17:48:48.870Z,7.20
2022-11-26T17:51:35.380Z,6.80
2022-11-26T17:54:21.641Z,7.83
2022-11-26T17:57:08.519Z,7.33
2022-11-26T17:59:56.603Z,7.67
2022-11-26T18:02:43.923Z,7.70
2022-11-26T18:05:30.142Z,7.77
2022-11-26T18:08:16.501Z,8.77
2022-11-26T18:11:03.383Z,8.50
2022-11-26T18:13:49.613Z,9.77
2022-11-26T18:16:38.376Z,8.70
2022-11-26T18:19:25.589Z,9.53
2022-11-26T18:22:13.383Z,9.57
2022-11-26T18:25:00.527Z,9.20
2022-11-26T18:27:46.959Z,10.10
2022-11-26T18:30:33.617Z,9.13
2022-11-26T18:33:21.056Z,8.60
2022-11-26T18:36:08.461Z,9.67
2022-11-26T18:38:55.071Z,11.17
2022-11-26T18:41:41.540Z,16.33
2022-11-26T18:44:27.912Z,12.57
2022-11-26T18:47:14.466Z,10.67
2022-11-26T18:50:02.147Z,11.03
2022-11-26T18:52:48.762Z,9.57
2022-11-26T18:55:35.115Z,9.73
2022-11-26T18:58:21.887Z,9.93
2022-11-26T19:01:14.258Z,12.00
2022-11-26T19:04:00.900Z,15.53
2022-11-26T19:06:48.552Z,15.07
2022-11-26T19:09:34.830Z,13.53
2022-11-26T19:12:21.170Z,13.77
2022-11-26T19:15:08.451Z,14.07
2022-11-26T19:17:54.665Z,12.90
2022-11-26T19:20:48.626Z,13.07
2022-11-26T19:23:36.164Z,12.87
2022-11-26T19:26:23.451Z,11.60
2022-11-26T19:29:12.185Z,11.77
2022-11-26T19:31:58.559Z,11.37
2022-11-26T19:34:44.967Z,12.17
2022-11-26T19:37:31.475Z,11.53
2022-11-26T19:40:19.308Z,22.47
2022-11-26T19:43:05.832Z,16.83
2022-11-26T19:45:52.259Z,11.50
2022-11-26T19:48:41.442Z,11.10
2022-11-26T19:51:28.614Z,12.00
2022-11-26T19:54:15.312Z,12.27
2022-11-26T19:57:02.995Z,12.90
2022-11-26T19:59:49.238Z,11.40
2022-11-26T20:02:35.458Z,13.20
2022-11-26T20:05:21.874Z,12.77
2022-11-26T20:08:08.123Z,11.53
2022-11-26T20:10:54.867Z,13.10
2022-11-26T20:13:44.239Z,13.73
2022-11-26T20:16:32.470Z,13.17
2022-11-26T20:19:19.232Z,12.73
2022-11-26T20:22:05.825Z,20.97
2022-11-26T20:24:52.219Z,22.63
2022-11-26T20:27:39.801Z,13.63
2022-11-26T20:30:27.773Z,14.07
2022-11-26T20:33:15.726Z,12.37
2022-11-26T20:36:05.230Z,14.50
2022-11-26T20:38:53.526Z,11.87
2022-11-26T20:41:39.779Z,12.80
2022-11-26T20:44:28.422Z,11.77
2022-11-26T20:47:16.287Z,17.87
2022-11-26T20:50:02.366Z,15.90
2022-11-26T20:52:48.538Z,18.63
2022-11-26T20:55:35.094Z,13.10
2022-11-26T20:58:21.744Z,12.17
2022-11-26T21:01:15.975Z,12.47
2022-11-26T21:04:04.183Z,12.30
2022-11-26T21:06:50.461Z,12.33
2022-11-26T21:09:36.573Z,12.03
2022-11-26T21:12:22.934Z,11.57
2022-11-26T21:15:10.320Z,13.17
2022-11-26T21:17:56.682Z,18.30
2022-11-26T21:20:45.385Z,13.50
2022-11-26T21:23:31.855Z,10.00
2022-11-26T21:26:19.755Z,11.10
2022-11-26T21:29:06.223Z,10.97
2022-11-26T21:31:52.558Z,11.80
2022-11-26T21:34:38.758Z,11.83
2022-11-26T21:37:28.316Z,10.63
2022-11-26T21:40:15.314Z,12.23
2022-11-26T21:43:01.605Z,11.43
2022-11-26T21:45:47.915Z,11.93
2022-11-26T21:48:35.547Z,12.73
2022-11-26T21:51:22.407Z,11.80
2022-11-26T21:54:10.307Z,13.07
2022-11-26T21:56:56.776Z,12.33
2022-11-26T21:59:43.082Z,12.40
2022-11-26T22:02:29.588Z,11.50
2022-11-26T22:05:15.970Z,12.23
2022-11-26T22:08:02.347Z,12.10
2022-11-26T22:10:50.238Z,17.03
2022-11-26T22:13:36.817Z,13.80
2022-11-26T22:16:25.084Z,21.37
2022-11-26T22:19:11.303Z,15.23
2022-11-26T22:21:57.558Z,18.73
2022-11-26T22:24:43.811Z,15.60
2022-11-26T22:27:31.351Z,14.47
2022-11-26T22:30:18.916Z,12.77
2022-11-26T22:33:06.226Z,12.03
2022-11-26T22:35:52.708Z,22.80
2022-11-26T22:38:40.704Z,13.70
2022-11-26T22:41:27.500Z,12.27
2022-11-26T22:44:16.515Z,13.77
2022-11-26T22:47:02.712Z,17.33
2022-11-26T22:49:49.693Z,14.10
2022-11-26T22:52:35.799Z,12.73
2022-11-26T22:55:23.287Z,12.90
2022-11-26T22:58:09.547Z,12.33
2022-11-26T23:00:59.559Z,12.43
2022-11-26T23:03:46.529Z,15.00
2022-11-26T23:06:34.940Z,14.17
2022-11-26T23:09:21.354Z,15.00
2022-11-26T23:12:08.107Z,15.60
2022-11-26T23:14:54.641Z,13.97
2022-11-26T23:17:42.323Z,13.40
2022-11-26T23:20:28.674Z,14.77
2022-11-26T23:23:15.074Z,14.70
2022-11-26T23:26:02.415Z,12.67
2022-11-26T23:28:48.639Z,11.07
2022-11-26T23:31:38.530Z,15.90
2022-11-26T23:34:26.078Z,12.43
2022-11-26T23:37:12.270Z,13.83
2022-11-26T23:39:58.496Z,13.83
2022-11-26T23:42:44.884Z,12.17
2022-11-26T23:45:31.109Z,11.50
2022-11-26T23:48:18.568Z,11.20
2022-11-26T23:51:09.176Z,11.80
2022-11-26T23:53:55.646Z,14.73
2022-11-26T23:56:44.431Z,16.57
2022-11-26T23:59:30.920Z,13.03
